Time;durP1;ratioP1;P1;durP2;ratioP2;P2;SDS_P1;SDS_P2;PMS_P1;PMS_P2;Temp;Humidity;BMP_temperature;BMP_pressure;BME280_temperature;BME280_humidity;BME280_pressure;Samples;Min_cycle;Max_cycle;Signal;HPM_P1;HPM_P2
2023/04/09 00:01:46;;;;;;;33.80;26.00;;;;;;;2.42;100.00;97226.59;109430;1270;22529;-89
2023/04/09 00:04:17;;;;;;;35.40;26.30;;;;;;;2.43;100.00;97229.39;109552;1268;22520;-89
2023/04/09 00:06:49;;;;;;;34.10;24.40;;;;;;;2.45;100.00;97225.71;109445;1270;24236;-89
2023/04/09 00:09:20;;;;;;;34.00;25.60;;;;;;;2.46;100.00;97226.47;109455;1264;58110;-89
2023/04/09 00:11:51;;;;;;;35.40;26.70;;;;;;;2.49;100.00;97225.76;109537;1270;22535;-89
2023/04/09 00:14:23;;;;;;;32.70;25.10;;;;;;;2.50;100.00;97229.09;109559;1270;23884;-89
2023/04/09 00:16:54;;;;;;;33.30;24.90;;;;;;;2.49;100.00;97231.56;109544;1268;22560;-90
2023/04/09 00:19:27;;;;;;;37.40;26.50;;;;;;;2.47;100.00;97232.19;109472;1270;51884;-89
2023/04/09 00:21:58;;;;;;;33.70;25.80;;;;;;;2.48;100.00;97234.30;109561;1270;22514;-89
2023/04/09 00:24:29;;;;;;;38.60;27.50;;;;;;;2.46;100.00;97235.20;109635;1269;24272;-89
2023/04/09 00:27:00;;;;;;;36.90;27.20;;;;;;;2.41;100.00;97231.91;109407;1265;22541;-89
2023/04/09 00:29:31;;;;;;;44.80;30.80;;;;;;;2.40;100.00;97239.60;109520;1263;67123;-89
2023/04/09 00:32:03;;;;;;;43.80;31.80;;;;;;;2.42;100.00;97236.69;109529;1263;22542;-89
2023/04/09 00:34:34;;;;;;;46.90;32.80;;;;;;;2.46;100.00;97236.41;109412;1270;23286;-89
2023/04/09 00:37:05;;;;;;;52.00;34.20;;;;;;;2.51;100.00;97237.74;109548;1269;22569;-89
2023/04/09 00:39:36;;;;;;;48.20;32.70;;;;;;;2.53;100.00;97235.15;109493;1270;73064;-89
2023/04/09 00:42:07;;;;;;;50.60;34.60;;;;;;;2.54;100.00;97234.71;109584;1262;22547;-89
2023/04/09 00:44:38;;;;;;;46.70;33.10;;;;;;;2.57;100.00;97234.66;109619;1268;22508;-89
2023/04/09 00:47:12;;;;;;;46.30;32.00;;;;;;;2.60;100.00;97235.88;109589;1269;22522;-89
2023/04/09 00:49:43;;;;;;;37.70;26.80;;;;;;;2.62;100.00;97232.11;109594;1269;22602;-89
2023/04/09 00:52:14;;;;;;;37.50;27.30;;;;;;;2.64;100.00;97229.23;109537;1270;22557;-89
2023/04/09 00:54:46;;;;;;;33.10;24.40;;;;;;;2.62;100.00;97232.75;109550;1270;22622;-90
2023/04/09 00:57:17;;;;;;;32.70;23.40;;;;;;;2.57;100.00;97231.91;109445;1270;31485;-88
2023/04/09 00:59:48;;;;;;;32.80;25.10;;;;;;;2.53;100.00;97233.42;109213;1271;22549;-89
2023/04/09 01:02:19;;;;;;;32.50;24.90;;;;;;;2.53;100.00;97232.94;109209;1271;22563;-90
2023/04/09 01:04:51;;;;;;;27.40;21.70;;;;;;;2.52;100.00;97231.73;109231;1271;24786;-90
2023/04/09 01:07:31;;;;;;;31.30;23.50;;;;;;;2.52;100.00;97233.43;109209;1271;52724;-89
2023/04/09 01:10:11;;;;;;;32.20;23.00;;;;;;;2.49;100.00;97235.59;109226;1271;24533;-90
2023/04/09 01:12:54;;;;;;;32.20;23.40;;;;;;;2.45;100.00;97229.94;109215;1271;22562;-89
2023/04/09 01:15:30;;;;;;;36.60;26.10;;;;;;;2.43;100.00;97230.33;109254;1265;22593;-89
2023/04/09 01:18:07;;;;;;;36.20;24.80;;;;;;;2.43;100.00;97230.16;109193;1268;63389;-89
2023/04/09 01:20:43;;;;;;;37.30;27.50;;;;;;;2.44;100.00;97228.42;109138;1272;22514;-89
2023/04/09 01:23:19;;;;;;;38.50;27.80;;;;;;;2.44;100.00;97230.04;109174;1271;22638;-89
2023/04/09 01:26:05;;;;;;;32.80;24.80;;;;;;;2.43;100.00;97227.09;109164;1271;22555;-89
2023/04/09 01:28:42;;;;;;;38.20;27.50;;;;;;;2.44;100.00;97228.95;109177;1271;62151;-90
2023/04/09 01:31:17;;;;;;;39.40;27.50;;;;;;;2.46;100.00;97230.94;109246;1271;22560;-89
2023/04/09 01:33:48;;;;;;;40.90;28.20;;;;;;;2.49;100.00;97233.24;109260;1271;25252;-89
2023/04/09 01:36:21;;;;;;;39.30;27.80;;;;;;;2.53;100.00;97235.19;109183;1271;22538;-89
2023/04/09 01:38:53;;;;;;;41.40;27.40;;;;;;;2.55;100.00;97235.56;109137;1265;57413;-89
2023/04/09 01:41:26;;;;;;;33.10;24.50;;;;;;;2.57;100.00;97231.52;109247;1271;22542;-89
2023/04/09 01:44:00;;;;;;;44.10;30.30;;;;;;;2.53;100.00;97233.43;109195;1271;22521;-90
2023/04/09 01:46:33;;;;;;;52.40;34.20;;;;;;;2.50;100.00;97231.55;109258;1271;22514;-90
2023/04/09 01:49:05;;;;;;;45.00;30.40;;;;;;;2.51;100.00;97231.22;109203;1271;82805;-90
2023/04/09 01:51:36;;;;;;;55.60;35.50;;;;;;;2.51;100.00;97230.73;109198;1271;22990;-90
2023/04/09 01:54:08;;;;;;;57.40;36.80;;;;;;;2.52;100.00;97232.38;109273;1266;22541;-89
2023/04/09 01:56:47;;;;;;;53.30;36.60;;;;;;;2.51;100.00;97231.73;109236;1271;25086;-89
2023/04/09 01:59:18;;;;;;;56.20;36.00;;;;;;;2.53;100.00;97236.13;109216;1271;86595;-88
2023/04/09 02:01:54;;;;;;;56.40;36.10;;;;;;;2.55;100.00;97235.98;109274;1271;22631;-89
2023/04/09 02:04:32;;;;;;;46.10;32.20;;;;;;;2.55;100.00;97235.52;109189;1265;22561;-90
2023/04/09 02:07:09;;;;;;;46.90;31.90;;;;;;;2.57;100.00;97240.86;109266;1271;22530;-90
2023/04/09 02:09:42;;;;;;;50.20;34.50;;;;;;;2.57;100.00;97239.45;109258;1271;50705;-90
2023/04/09 02:12:16;;;;;;;51.10;34.30;;;;;;;2.57;100.00;97235.94;109264;1266;22614;-90
2023/04/09 02:14:51;;;;;;;50.00;33.90;;;;;;;2.56;100.00;97237.89;109235;1271;22518;-89
2023/04/09 02:17:22;;;;;;;45.90;31.50;;;;;;;2.56;100.00;97237.32;109189;1270;64835;-89
2023/04/09 02:19:53;;;;;;;39.90;28.00;;;;;;;2.57;100.00;97234.94;109304;1271;24246;-89
2023/04/09 02:22:24;;;;;;;34.40;25.10;;;;;;;2.54;100.00;97232.74;109211;1271;22592;-89
2023/04/09 02:24:55;;;;;;;38.90;27.50;;;;;;;2.49;100.00;97227.48;109238;1270;23280;-89
2023/04/09 02:27:26;;;;;;;36.50;26.00;;;;;;;2.46;100.00;97230.90;109267;1271;36308;-90
2023/04/09 02:29:57;;;;;;;48.00;32.80;;;;;;;2.44;100.00;97230.55;109264;1271;22984;-89
2023/04/09 02:32:28;;;;;;;42.60;29.20;;;;;;;2.43;100.00;97224.57;109272;1271;22534;-89
2023/04/09 02:34:59;;;;;;;44.30;31.00;;;;;;;2.42;100.00;97224.13;109236;1268;22666;-90
2023/04/09 02:37:30;;;;;;;48.10;31.90;;;;;;;2.41;100.00;97221.69;109246;1271;48995;-88
2023/04/09 02:40:03;;;;;;;40.40;28.70;;;;;;;2.41;100.00;97225.83;109268;1271;22522;-89
2023/04/09 02:42:34;;;;;;;40.50;27.70;;;;;;;2.36;100.00;97218.47;109280;1268;22530;-89
2023/04/09 02:45:06;;;;;;;44.80;30.20;;;;;;;2.32;100.00;97217.73;109209;1271;22521;-90
2023/04/09 02:47:37;;;;;;;37.30;26.00;;;;;;;2.29;100.00;97216.75;109132;1271;54907;-89
2023/04/09 02:50:10;;;;;;;45.10;30.60;;;;;;;2.28;100.00;97223.29;109209;1271;22630;-89
2023/04/09 02:52:41;;;;;;;46.20;30.90;;;;;;;2.28;100.00;97223.98;109238;1271;22967;-89
2023/04/09 02:55:12;;;;;;;47.50;31.50;;;;;;;2.30;100.00;97222.83;109223;1265;23415;-89
2023/04/09 02:57:43;;;;;;;44.20;28.10;;;;;;;2.30;100.00;97225.92;109174;1269;52745;-89
2023/04/09 03:00:15;;;;;;;44.00;30.70;;;;;;;2.23;100.00;97225.12;109173;1271;25398;-89
2023/04/09 03:02:46;;;;;;;41.00;28.80;;;;;;;2.16;100.00;97224.67;109280;1271;25324;-89
2023/04/09 03:05:17;;;;;;;49.00;32.60;;;;;;;2.15;100.00;97222.27;109292;1271;22508;-90
2023/04/09 03:07:49;;;;;;;46.20;31.30;;;;;;;2.16;100.00;97221.66;109151;1270;75424;-90
2023/04/09 03:10:20;;;;;;;44.70;30.60;;;;;;;2.15;100.00;97219.94;109178;1268;25361;-89
2023/04/09 03:12:51;;;;;;;44.50;29.40;;;;;;;2.12;100.00;97220.19;109264;1271;23175;-90
2023/04/09 03:15:22;;;;;;;43.50;29.50;;;;;;;2.10;100.00;97221.66;109200;1271;22548;-90
2023/04/09 03:17:53;;;;;;;50.10;33.80;;;;;;;2.11;100.00;97226.09;109259;1271;39217;-90
2023/04/09 03:20:24;;;;;;;58.00;36.00;;;;;;;2.10;100.00;97227.98;109241;1271;23047;-90
2023/04/09 03:22:55;;;;;;;59.00;37.90;;;;;;;2.11;100.00;97225.54;109309;1268;22529;-90
2023/04/09 03:25:26;;;;;;;55.40;32.80;;;;;;;2.10;100.00;97229.33;109185;1271;22626;-89
2023/04/09 03:27:57;;;;;;;53.10;35.30;;;;;;;2.09;100.00;97228.84;109258;1268;26355;-89
2023/04/09 03:30:29;;;;;;;42.10;29.80;;;;;;;2.07;100.00;97227.44;109259;1264;22518;-89
2023/04/09 03:33:00;;;;;;;47.10;33.10;;;;;;;2.02;100.00;97231.46;109264;1271;22516;-88
2023/04/09 03:35:31;;;;;;;49.80;32.40;;;;;;;2.00;100.00;97234.21;109229;1271;22528;-89
2023/04/09 03:38:02;;;;;;;53.90;34.80;;;;;;;1.99;100.00;97231.92;109170;1268;37775;-90
2023/04/09 03:40:36;;;;;;;55.40;36.80;;;;;;;1.99;100.00;97235.11;109247;1271;22515;-89
2023/04/09 03:43:07;;;;;;;54.70;36.10;;;;;;;1.99;100.00;97236.44;109247;1271;25596;-89
2023/04/09 03:45:38;;;;;;;51.90;34.40;;;;;;;2.00;100.00;97239.27;109260;1271;22551;-89
2023/04/09 03:48:09;;;;;;;48.90;32.50;;;;;;;1.99;100.00;97233.77;109213;1265;42495;-89
2023/04/09 03:50:43;;;;;;;48.10;34.10;;;;;;;1.99;100.00;97243.59;109229;1268;22595;-90
2023/04/09 03:53:14;;;;;;;49.90;33.40;;;;;;;1.99;100.00;97239.81;109310;1271;23141;-88
2023/04/09 03:55:46;;;;;;;45.80;30.80;;;;;;;1.98;100.00;97242.31;109232;1271;22524;-89
2023/04/09 03:58:17;;;;;;;41.70;29.50;;;;;;;1.95;100.00;97244.59;109224;1269;47030;-89
2023/04/09 04:00:48;;;;;;;34.90;24.40;;;;;;;1.92;100.00;97246.30;109241;1270;22508;-90
2023/04/09 04:03:19;;;;;;;35.90;26.80;;;;;;;1.88;100.00;97249.14;109253;1270;22515;-89
2023/04/09 04:05:51;;;;;;;37.80;27.80;;;;;;;1.87;100.00;97252.93;109231;1268;22515;-90
2023/04/09 04:08:22;;;;;;;35.30;27.10;;;;;;;1.87;100.00;97252.65;109173;1271;46105;-89
2023/04/09 04:10:53;;;;;;;37.70;27.50;;;;;;;1.89;100.00;97257.14;109298;1271;23258;-89
2023/04/09 04:13:24;;;;;;;34.10;24.50;;;;;;;1.91;100.00;97255.48;109266;1248;22550;-90
2023/04/09 04:15:55;;;;;;;32.90;24.50;;;;;;;1.90;100.00;97258.02;109213;1271;22850;-89
2023/04/09 04:18:26;;;;;;;35.80;27.20;;;;;;;1.90;100.00;97255.80;109185;1271;50697;-90
2023/04/09 04:20:57;;;;;;;32.90;25.00;;;;;;;1.94;100.00;97252.85;109201;1272;22607;-89
2023/04/09 04:23:29;;;;;;;37.00;27.20;;;;;;;1.96;100.00;97254.81;109200;1271;24636;-89
2023/04/09 04:26:00;;;;;;;35.80;27.40;;;;;;;1.98;100.00;97253.20;109260;1271;22523;-89
2023/04/09 04:28:32;;;;;;;35.80;27.10;;;;;;;1.99;100.00;97254.20;109218;1271;41956;-89
2023/04/09 04:31:03;;;;;;;35.90;26.00;;;;;;;2.01;100.00;97252.43;109231;1269;22555;-90
2023/04/09 04:33:34;;;;;;;38.00;27.80;;;;;;;2.01;100.00;97257.21;109189;1266;23349;-89
2023/04/09 04:36:10;;;;;;;32.00;24.50;;;;;;;2.03;100.00;97255.11;109211;1271;22569;-89
2023/04/09 04:38:42;;;;;;;36.90;26.30;;;;;;;2.03;100.00;97255.44;109139;1266;75846;-88
2023/04/09 04:41:14;;;;;;;37.00;27.20;;;;;;;2.02;100.00;97257.02;109224;1271;22553;-89
2023/04/09 04:43:46;;;;;;;39.20;29.40;;;;;;;2.05;100.00;97264.03;109292;1271;22532;-89
2023/04/09 04:46:19;;;;;;;44.00;31.60;;;;;;;2.08;100.00;97261.48;109201;1272;22569;-89
2023/04/09 04:48:50;;;;;;;40.30;28.70;;;;;;;2.09;100.00;97263.20;109165;1263;95384;-89
2023/04/09 04:51:21;;;;;;;43.30;31.20;;;;;;;2.05;100.00;97261.73;109236;1271;22629;-88
2023/04/09 04:53:52;;;;;;;50.30;33.40;;;;;;;2.07;100.00;97264.63;109323;1271;22520;-89
2023/04/09 04:56:24;;;;;;;49.50;33.20;;;;;;;2.11;100.00;97266.30;109285;1264;22744;-89
2023/04/09 04:58:55;;;;;;;59.80;35.50;;;;;;;2.16;100.00;97266.56;109165;1271;77609;-89
2023/04/09 05:01:26;;;;;;;63.10;38.20;;;;;;;2.22;100.00;97269.46;109253;1267;25325;-89
2023/04/09 05:03:58;;;;;;;63.30;38.60;;;;;;;2.28;100.00;97266.31;109259;1268;25339;-89
2023/04/09 05:06:30;;;;;;;63.90;37.30;;;;;;;2.33;100.00;97263.29;109178;1271;22514;-89
2023/04/09 05:09:01;;;;;;;63.60;35.20;;;;;;;2.36;100.00;97265.05;109222;1271;43620;-88
2023/04/09 05:11:32;;;;;;;72.60;42.60;;;;;;;2.39;100.00;97268.34;109216;1271;22571;-89
2023/04/09 05:14:05;;;;;;;66.80;38.90;;;;;;;2.42;100.00;97266.52;109266;1271;22568;-89
2023/04/09 05:16:36;;;;;;;68.10;37.70;;;;;;;2.46;100.00;97269.88;109332;1271;22553;-89
2023/04/09 05:19:07;;;;;;;61.50;36.20;;;;;;;2.48;100.00;97272.52;109146;1271;54957;-89
2023/04/09 05:21:38;;;;;;;62.20;38.60;;;;;;;2.51;100.00;97275.66;109245;1264;24226;-89
2023/04/09 05:24:10;;;;;;;65.40;39.60;;;;;;;2.54;100.00;97281.73;109256;1271;22533;-89
2023/04/09 05:26:41;;;;;;;55.30;33.70;;;;;;;2.57;100.00;97283.89;109220;1271;22530;-89
2023/04/09 05:29:12;;;;;;;67.10;39.40;;;;;;;2.60;100.00;97283.35;109235;1271;64203;-89
2023/04/09 05:31:43;;;;;;;64.80;39.50;;;;;;;2.64;100.00;97285.05;109317;1271;23567;-88
2023/04/09 05:34:14;;;;;;;63.50;38.60;;;;;;;2.70;100.00;97286.61;109243;1264;22542;-89
2023/04/09 05:36:45;;;;;;;59.70;35.00;;;;;;;2.74;100.00;97287.73;109289;1271;22642;-88
2023/04/09 05:39:17;;;;;;;57.50;35.30;;;;;;;2.79;100.00;97289.14;109197;1264;73217;-89
2023/04/09 05:41:48;;;;;;;58.70;37.40;;;;;;;2.86;100.00;97289.91;109257;1271;22522;-89
2023/04/09 05:44:19;;;;;;;56.10;36.50;;;;;;;2.94;100.00;97293.75;109260;1271;22606;-89
2023/04/09 05:46:50;;;;;;;61.70;39.40;;;;;;;3.02;100.00;97289.44;109202;1270;25331;-89
2023/04/09 05:49:21;;;;;;;56.80;36.40;;;;;;;3.08;100.00;97291.60;109183;1271;63225;-88
2023/04/09 05:51:53;;;;;;;57.30;34.20;;;;;;;3.15;100.00;97292.33;109202;1271;22542;-88
2023/04/09 05:54:24;;;;;;;55.30;34.60;;;;;;;3.18;100.00;97293.25;109309;1264;22536;-88
2023/04/09 05:56:55;;;;;;;54.10;34.40;;;;;;;3.24;100.00;97295.55;109275;1264;23330;-88
2023/04/09 05:59:27;;;;;;;53.20;35.00;;;;;;;3.31;100.00;97294.77;109231;1267;69251;-88
2023/04/09 06:01:58;;;;;;;51.10;32.90;;;;;;;3.39;100.00;97293.95;109319;1271;24156;-89
2023/04/09 06:04:29;;;;;;;49.30;34.00;;;;;;;3.48;100.00;97295.98;109285;1271;22546;-88
2023/04/09 06:07:00;;;;;;;55.40;36.30;;;;;;;3.56;100.00;97297.80;109242;1260;22541;-88
2023/04/09 06:09:31;;;;;;;51.40;34.40;;;;;;;3.63;100.00;97302.01;109175;1271;44606;-88
2023/04/09 06:12:02;;;;;;;54.80;36.30;;;;;;;3.67;100.00;97304.97;109273;1271;22525;-88
2023/04/09 06:14:34;;;;;;;48.20;32.30;;;;;;;3.70;100.00;97308.05;109255;1271;22537;-89
2023/04/09 06:17:05;;;;;;;50.80;33.70;;;;;;;3.71;100.00;97308.92;109192;1264;22634;-88
2023/04/09 06:19:36;;;;;;;52.30;34.70;;;;;;;3.68;100.00;97306.80;109252;1271;46663;-88
2023/04/09 06:22:09;;;;;;;51.10;33.00;;;;;;;3.69;100.00;97306.31;109238;1265;22528;-87
2023/04/09 06:24:40;;;;;;;47.80;30.30;;;;;;;3.76;100.00;97308.17;109265;1264;25409;-88
2023/04/09 06:27:11;;;;;;;47.20;30.90;;;;;;;3.82;100.00;97309.53;109297;1271;22535;-87
2023/04/09 06:29:43;;;;;;;49.50;32.90;;;;;;;3.82;100.00;97315.23;109259;1269;49378;-88
2023/04/09 06:32:14;;;;;;;44.20;29.90;;;;;;;3.83;100.00;97314.05;109258;1264;22512;-87
2023/04/09 06:34:45;;;;;;;47.70;31.60;;;;;;;3.85;100.00;97312.64;109215;1271;22679;-87
2023/04/09 06:37:16;;;;;;;48.40;31.40;;;;;;;3.89;100.00;97316.67;109208;1267;23400;-87
2023/04/09 06:39:47;;;;;;;44.10;29.20;;;;;;;3.88;100.00;97313.61;109276;1271;22542;-87
2023/04/09 06:42:19;;;;;;;43.70;27.40;;;;;;;3.86;100.00;97314.66;109244;1271;23018;-87
2023/04/09 06:44:50;;;;;;;42.80;30.10;;;;;;;3.83;100.00;97314.85;109473;1270;22534;-87
2023/04/09 06:47:21;;;;;;;46.90;31.20;;;;;;;3.82;100.00;97317.97;109292;1270;44609;-87
2023/04/09 06:49:52;;;;;;;41.50;27.40;;;;;;;3.85;100.00;97319.73;109489;1270;24357;-87
2023/04/09 06:52:23;;;;;;;43.10;30.60;;;;;;;3.83;100.00;97317.98;109487;1262;22633;-87
2023/04/09 06:54:55;;;;;;;45.70;29.80;;;;;;;3.81;100.00;97321.61;109584;1269;22527;-87
2023/04/09 06:57:27;;;;;;;45.10;30.90;;;;;;;3.79;100.00;97323.23;109483;1263;45128;-88
2023/04/09 06:59:58;;;;;;;50.40;32.50;;;;;;;3.79;100.00;97322.94;109434;1264;22588;-87
2023/04/09 07:02:29;;;;;;;46.20;32.50;;;;;;;3.81;100.00;97326.73;109354;1264;26458;-87
2023/04/09 07:05:01;;;;;;;47.00;31.40;;;;;;;3.84;100.00;97328.30;109442;1267;22530;-87
2023/04/09 07:07:32;;;;;;;48.60;33.70;;;;;;;3.90;100.00;97325.38;109366;1270;68668;-87
2023/04/09 07:10:05;;;;;;;49.70;33.20;;;;;;;3.98;100.00;97328.02;109456;1267;22935;-87
2023/04/09 07:12:36;;;;;;;49.60;33.00;;;;;;;4.06;100.00;97327.73;109465;1270;23250;-87
2023/04/09 07:15:08;;;;;;;47.40;33.30;;;;;;;4.11;100.00;97331.58;109556;1269;24209;-87
2023/04/09 07:17:42;;;;;;;48.60;33.00;;;;;;;4.23;100.00;97329.14;109347;1267;55354;-87
2023/04/09 07:20:14;;;;;;;48.50;34.20;;;;;;;4.25;100.00;97334.83;109431;1264;22520;-87
2023/04/09 07:22:47;;;;;;;48.90;35.00;;;;;;;4.27;100.00;97334.95;109438;1270;23013;-87
2023/04/09 07:25:18;;;;;;;46.10;32.40;;;;;;;4.39;100.00;97335.05;109464;1270;22654;-87
2023/04/09 07:27:51;;;;;;;47.90;33.80;;;;;;;4.64;100.00;97332.86;109405;1270;61969;-87
2023/04/09 07:30:23;;;;;;;41.20;29.30;;;;;;;4.75;100.00;97333.92;109427;1269;24307;-87
2023/04/09 07:32:55;;;;;;;44.90;30.90;;;;;;;4.79;100.00;97336.72;109555;1269;22525;-87
2023/04/09 07:35:26;;;;;;;42.30;31.30;;;;;;;4.86;100.00;97334.73;109446;1270;22526;-87
2023/04/09 07:37:58;;;;;;;43.90;32.20;;;;;;;4.95;100.00;97334.09;109519;1269;57925;-87
2023/04/09 07:40:30;;;;;;;46.40;33.70;;;;;;;5.09;100.00;97333.48;109434;1270;22567;-87
2023/04/09 07:43:02;;;;;;;43.50;32.10;;;;;;;5.21;100.00;97340.77;109453;1270;22740;-87
2023/04/09 07:45:33;;;;;;;40.80;29.70;;;;;;;5.34;100.00;97342.98;109515;1269;23300;-87
2023/04/09 07:48:07;;;;;;;42.90;30.90;;;;;;;5.48;100.00;97337.89;109279;1270;95282;-87
2023/04/09 07:50:38;;;;;;;40.30;29.20;;;;;;;5.79;100.00;97336.81;109591;1269;25431;-87
2023/04/09 07:53:11;;;;;;;40.10;29.80;;;;;;;6.12;99.90;97340.23;109472;1270;22518;-86
2023/04/09 07:55:43;;;;;;;40.00;30.70;;;;;;;6.39;99.24;97336.35;109480;1270;22658;-86
2023/04/09 07:58:14;;;;;;;34.90;27.80;;;;;;;6.89;99.08;97335.71;109427;1267;42399;-86
2023/04/09 08:00:45;;;;;;;34.70;30.10;;;;;;;8.12;99.80;97333.69;109438;1270;22645;-86
2023/04/09 08:03:18;;;;;;;28.90;25.80;;;;;;;10.29;99.37;97330.16;109495;1262;22575;-86
2023/04/09 08:05:49;;;;;;;30.50;27.20;;;;;;;10.80;92.07;97328.11;109440;1264;22521;-86
2023/04/09 08:08:21;;;;;;;29.30;26.10;;;;;;;10.62;90.00;97327.20;109394;1270;50753;-86
2023/04/09 08:10:52;;;;;;;31.70;28.30;;;;;;;10.84;89.13;97322.98;109479;1263;22624;-86
2023/04/09 08:13:24;;;;;;;28.40;24.90;;;;;;;10.61;87.37;97325.51;109453;1264;25377;-86
2023/04/09 08:15:56;;;;;;;28.60;24.80;;;;;;;9.86;85.12;97323.37;109420;1263;22534;-86
2023/04/09 08:18:28;;;;;;;31.50;26.60;;;;;;;9.28;85.82;97325.66;109490;1264;46497;-86
2023/04/09 08:20:59;;;;;;;30.10;25.10;;;;;;;9.03;86.65;97324.69;109533;1267;22515;-86
2023/04/09 08:23:30;;;;;;;35.40;29.00;;;;;;;8.87;86.94;97322.80;109432;1270;22523;-85
2023/04/09 08:26:02;;;;;;;35.40;28.00;;;;;;;8.69;86.95;97328.10;109432;1270;22648;-86
2023/04/09 08:28:33;;;;;;;34.40;27.80;;;;;;;8.52;87.08;97329.60;109415;1269;29946;-85
2023/04/09 08:31:05;;;;;;;30.80;24.50;;;;;;;8.39;86.40;97333.63;109424;1270;22527;-85
2023/04/09 08:33:36;;;;;;;28.60;24.40;;;;;;;8.56;87.40;97328.42;109279;1264;186478;-85
2023/04/09 08:36:11;;;;;;;28.00;24.10;;;;;;;10.31;90.49;97321.05;109389;1270;24247;-85
2023/04/09 08:38:43;;;;;;;28.70;23.90;;;;;;;11.19;87.15;97315.92;109383;1269;37393;-85
2023/04/09 08:41:21;;;;;;;26.90;21.70;;;;;;;11.06;85.17;97322.06;109459;1264;22557;-84
2023/04/09 08:43:54;;;;;;;23.90;21.20;;;;;;;10.73;81.57;97323.53;109466;1270;22562;-84
2023/04/09 08:46:26;;;;;;;25.20;21.30;;;;;;;10.14;81.06;97326.84;109399;1269;25283;-84
2023/04/09 08:49:01;;;;;;;26.00;22.80;;;;;;;10.08;82.80;97324.94;109441;1270;51891;-84
2023/04/09 08:51:38;;;;;;;22.60;19.60;;;;;;;10.51;83.82;97326.06;109382;1270;22518;-84
2023/04/09 08:54:10;;;;;;;21.40;18.90;;;;;;;11.00;84.23;97327.73;109495;1269;22553;-84
2023/04/09 08:56:42;;;;;;;22.90;19.40;;;;;;;11.79;83.27;97330.68;109416;1270;22526;-85
2023/04/09 08:59:18;;;;;;;20.90;18.60;;;;;;;12.27;80.14;97324.85;109304;1270;47768;-84
2023/04/09 09:01:53;;;;;;;20.60;17.60;;;;;;;11.62;75.04;97329.41;109223;1264;22559;-84
2023/04/09 09:04:24;;;;;;;21.10;18.40;;;;;;;10.96;75.07;97331.91;109287;1271;22527;-84
2023/04/09 09:07:06;;;;;;;18.80;16.00;;;;;;;11.15;77.33;97329.29;109305;1271;22576;-84
2023/04/09 09:09:52;;;;;;;21.50;19.20;;;;;;;11.76;74.97;97332.82;109151;1271;123078;-84
2023/04/09 09:12:36;;;;;;;21.80;19.00;;;;;;;12.26;75.03;97324.96;109331;1261;22630;-84
2023/04/09 09:15:26;;;;;;;20.10;17.90;;;;;;;11.95;70.72;97325.41;109287;1271;22591;-84
2023/04/09 09:18:00;;;;;;;20.70;17.30;;;;;;;10.93;69.22;97327.44;109304;1269;50443;-83
2023/04/09 09:20:31;;;;;;;20.20;18.10;;;;;;;10.05;70.17;97328.95;109500;1266;22512;-84
2023/04/09 09:23:02;;;;;;;18.20;15.40;;;;;;;9.74;72.90;97332.48;109467;1262;23228;-84
2023/04/09 09:25:40;;;;;;;20.40;17.80;;;;;;;9.75;73.74;97331.78;109540;1269;22515;-83
2023/04/09 09:28:13;;;;;;;18.90;16.30;;;;;;;10.00;75.42;97330.20;109412;1264;54666;-83
2023/04/09 09:30:46;;;;;;;17.40;15.50;;;;;;;10.40;74.94;97330.48;109468;1269;22517;-83
2023/04/09 09:33:17;;;;;;;21.80;18.70;;;;;;;10.34;74.07;97330.98;109409;1264;24287;-84
2023/04/09 09:35:56;;;;;;;30.20;23.50;;;;;;;10.34;74.89;97327.91;109474;1270;22551;-84
2023/04/09 09:38:27;;;;;;;18.60;16.60;;;;;;;10.36;75.03;97327.38;109486;1270;46018;-84
2023/04/09 09:40:58;;;;;;;17.50;15.10;;;;;;;10.22;73.62;97332.60;109414;1270;22525;-84
2023/04/09 09:43:42;;;;;;;17.10;15.30;;;;;;;9.74;71.64;97332.08;109493;1269;23987;-84
2023/04/09 09:46:16;;;;;;;54.40;40.80;;;;;;;9.50;73.49;97330.45;109449;1262;22529;-84
2023/04/09 09:48:48;;;;;;;34.80;26.00;;;;;;;9.72;74.86;97328.63;109364;1264;89351;-84
2023/04/09 09:51:26;;;;;;;27.10;21.80;;;;;;;9.97;75.29;97328.59;109535;1258;24024;-84
2023/04/09 09:53:59;;;;;;;18.60;15.90;;;;;;;10.09;74.36;97332.46;109494;1270;22532;-83
2023/04/09 09:56:35;;;;;;;18.30;16.20;;;;;;;9.80;72.87;97329.48;109494;1270;22631;-83
2023/04/09 09:59:20;;;;;;;17.90;14.90;;;;;;;9.46;72.07;97333.64;109392;1268;46406;-83
2023/04/09 10:01:58;;;;;;;17.40;15.60;;;;;;;9.04;72.20;97332.54;109438;1260;22518;-83
2023/04/09 10:04:33;;;;;;;17.00;15.30;;;;;;;8.98;73.62;97328.75;109454;1270;24312;-83
2023/04/09 10:07:07;;;;;;;17.80;15.10;;;;;;;9.09;74.62;97326.86;109340;1264;25451;-84
2023/04/09 10:09:40;;;;;;;17.60;15.70;;;;;;;9.15;74.74;97328.56;109404;1270;47704;-83
2023/04/09 10:12:12;;;;;;;19.00;15.40;;;;;;;9.16;74.50;97327.09;109338;1270;22535;-82
2023/04/09 10:14:43;;;;;;;19.20;16.10;;;;;;;9.11;74.46;97323.54;109409;1270;23345;-83
2023/04/09 10:17:15;;;;;;;18.60;15.70;;;;;;;9.14;75.18;97321.41;109456;1270;22646;-82
2023/04/09 10:19:55;;;;;;;18.20;16.10;;;;;;;9.22;75.09;97321.32;109550;1270;26482;-83
2023/04/09 10:22:30;;;;;;;19.80;15.60;;;;;;;9.24;75.07;97319.38;109453;1269;22557;-83
2023/04/09 10:25:03;;;;;;;17.10;15.10;;;;;;;9.14;73.93;97319.02;109361;1269;22576;-82
2023/04/09 10:27:34;;;;;;;16.50;14.50;;;;;;;9.00;72.87;97319.05;109425;1270;51389;-82
2023/04/09 10:30:09;;;;;;;17.90;15.90;;;;;;;8.77;73.08;97321.27;109441;1270;22550;-83
2023/04/09 10:32:41;;;;;;;18.30;15.90;;;;;;;8.78;74.40;97318.20;109460;1270;22529;-82
2023/04/09 10:35:12;;;;;;;19.10;15.20;;;;;;;8.82;74.18;97312.80;109473;1270;26108;-83
2023/04/09 10:37:51;;;;;;;17.60;15.70;;;;;;;8.82;74.20;97311.89;109392;1263;52197;-83
2023/04/09 10:40:23;;;;;;;19.00;15.50;;;;;;;8.75;73.58;97313.36;109389;1262;22542;-83
2023/04/09 10:42:54;;;;;;;18.20;15.50;;;;;;;8.69;74.21;97309.59;109475;1270;22555;-84
2023/04/09 10:45:39;;;;;;;35.70;26.10;;;;;;;8.72;74.16;97310.89;109477;1269;22559;-84
2023/04/09 10:48:13;;;;;;;19.70;16.70;;;;;;;8.83;74.51;97313.27;109367;1270;54528;-84
2023/04/09 10:50:46;;;;;;;18.00;15.70;;;;;;;8.96;74.70;97311.92;109520;1268;23578;-83
2023/04/09 10:53:25;;;;;;;19.10;16.40;;;;;;;9.02;73.82;97313.32;109619;1269;22519;-83
2023/04/09 10:55:57;;;;;;;18.10;16.10;;;;;;;8.95;73.25;97312.13;109501;1269;24288;-84
2023/04/09 10:58:28;;;;;;;23.70;19.70;;;;;;;8.83;73.62;97310.54;109457;1270;49662;-84
2023/04/09 11:01:03;;;;;;;23.40;19.20;;;;;;;8.81;74.22;97309.98;109485;1270;22685;-84
2023/04/09 11:03:45;;;;;;;19.30;17.20;;;;;;;8.87;74.59;97308.20;109466;1270;23109;-84
2023/04/09 11:06:20;;;;;;;24.00;21.00;;;;;;;8.99;75.08;97308.94;109482;1264;22517;-84
2023/04/09 11:08:51;;;;;;;24.70;21.60;;;;;;;9.15;75.17;97309.98;109386;1266;48251;-84
2023/04/09 11:11:28;;;;;;;21.00;17.90;;;;;;;9.37;75.25;97309.16;109458;1251;24216;-84
2023/04/09 11:14:02;;;;;;;18.10;16.20;;;;;;;9.62;75.12;97307.39;109686;1270;22526;-84
2023/04/09 11:16:33;;;;;;;18.20;15.40;;;;;;;9.82;74.77;97306.73;109388;1270;22518;-84
2023/04/09 11:19:06;;;;;;;22.90;20.40;;;;;;;9.92;73.34;97303.55;109399;1259;67787;-84
2023/04/09 11:21:38;;;;;;;20.00;17.70;;;;;;;9.99;74.59;97300.84;109431;1262;22602;-84
2023/04/09 11:24:09;;;;;;;18.00;15.10;;;;;;;10.15;73.90;97300.70;109441;1270;22539;-83
2023/04/09 11:26:40;;;;;;;15.90;14.20;;;;;;;10.05;72.75;97301.77;109477;1265;22625;-84
2023/04/09 11:29:12;;;;;;;16.30;14.40;;;;;;;10.06;73.14;97303.41;109434;1265;49645;-83
2023/04/09 11:31:45;;;;;;;18.70;16.50;;;;;;;9.97;72.36;97301.61;109461;1270;22653;-83
2023/04/09 11:34:17;;;;;;;17.50;15.50;;;;;;;9.93;72.27;97300.65;109444;1267;22524;-84
2023/04/09 11:36:50;;;;;;;14.80;13.20;;;;;;;9.89;71.50;97299.45;109478;1267;22540;-83